El Viso del Alcor, Spain
Current Conditions -  °F | °C
As of 5:00 AM on Thursday 29 Jan 2015 (Local Time) from LEZL Reporting Station
Moderate Fog Moderate Fog  
Wind Chill: 39°   Ceiling: 100
Heat Index: 39°   Visibility: 0.12mi
Dew Point: 39°   Wind: 0mph
Humidity: 100%   Direction: NA
Pressure: 30.21"   Gusts: NA
Location:  37.39°N, 5.72°W
Report Text: LEZL 290400Z 00000KT 0200 R27/0375N R09/0275U FG VV00104/04 Q1023 NOSIG
Loading
Personal Weather Stations






























Interactive Weather Map New forecast layout! Learn more

10-Day Weather Forecast

Advertisements
Track Severe Weather on mobile